Skip Navigation Links
NOAA logo - Click to go to the NOAA homepage
NOAA's National Weather Service
Alaska Aviation Weather Unit
  NWS logo - Click to go to the NWS homepage
Left Navbar Graphic     21 AKDT = 05 GMT

   
NOAA is celebrating 200 years of science, service, and stewardship. Visit the NOAA 200th celebration Web site to learn more.
USA.gov is the U.S. Government's official Web portal to all Federal, state and local government Web resources and services.
Facebook
NWS on Facebook

Important Change Regarding the AAWU Web Presence

 

Over the last several months, the AAWU has been working to navigate its webpages to a nationally supported server. Security, as well as other needs, have necessitated the change.  In the process, we have made an effort to enhance the functionality of our website, as well as some of our products. As of June 27, 2017, aawu.arh.noaa.gov will be discontinued. The new AAWU web address is weather.gov/aawu. It is now live and will run in-parallel with the old site until it is discontinued. Please send any feedback or questions regarding the new webpages to nws.ar.aawu.webauthors@noaa.gov.  Thank you for your patience during this time of transition.
AAWU Home :: Display TAF Add Bookmark
TAF PADL 242335Z 2500/2524 18011G19KT P6SM SCT030 BKN080
     FM251200 17002KT 1SM BR BKN003
     FM251800 09005KT P6SM SCT007 BKN070=

METAR PADL 242356Z 18015G20KT 10SM SCT040 17/10 A3020= METAR PADL 250056Z 18009G16KT 10SM CLR 18/09 A3019= METAR PADL 250156Z 19007KT 170V240 10SM CLR 18/08 A3018= METAR PADL 250256Z 20007KT 170V250 10SM CLR 17/07 A3017= METAR PADL 250356Z 20007KT 170V230 10SM CLR 17/06 A3016= METAR PADL 250456Z VRB04KT 10SM SCT200 15/08 A3014=
 Alaska TAF Map

NOAA's National Weather Service
Alaska Aviation Weather Unit
6930 Sand Lake Road
Anchorage, AK 99502-1845
Disclaimer
Credits
Glossary
Privacy Policy
About Us
Career Opportunities
Contact AAWU Internet Services Site last modified: April, 17th 2012